Porthmadog, United Kingdom
Current Conditions -  °F | °C
As of 2:03 PM on Thursday 23 Oct 2014 (Local Time) from EGOV Reporting Station
Light Rain Light Rain  
Wind Chill: 59°   Ceiling: 800
Heat Index: 59°   Visibility: 6mi
Dew Point: 57°   Wind: 23mph
Humidity: 94%   Direction: 210°SSW
Pressure: 29.91"   Gusts: NA
Location:  52.93°N, 4.13°W
Report Text: EGOV 231303Z 21020KT 9999 5000E -RA FEW006 BKN008 BKN020 15/14 Q1013 GRN BECMG 9999 NSW GRN
Loading
Personal Weather Stations






























Interactive Weather Map
Tropical Storm Tracking
New forecast layout! Learn more

10-Day Weather Forecast

Advertisements
Track Severe Weather on mobile